CheckWX is a tool to help pilots better visualize weather data.  It is not intended as a substitute for an official pre-flight weather briefing.

10:09:49 UTC

UKOO TAF
Odessa International Airport
Odessa, Ukraine
TAF UKOO 260502Z 2606/2706 04006G12MPS 6000 BKN010 SCT020CB TX32/2611Z TN21/2702Z PROB40 TEMPO 2608/2615 2100 -TSRA BECMG 2621/2622 07003MPS

Jun-26@
06:00 UTC

Jun-26 @ 06:00 UTC

Jun-26@
21:00 UTC

Jun-26 @ 21:00 UTC

TAF UKOO 260502Z 2606/2706 04006G12MPS 6000 BKN010 SCT020CB TX32/2611Z TN21/2702Z
Wind
  • 040° at 12 KTS
  • {Gusting to 23 KTS
Cloud Levels
  • Broken at 1,000' AGL
  • Scattered at 2,000' AGL

Jun-26@
08:00 UTC

Jun-26 @ 08:00 UTC

Jun-26@
15:00 UTC

Jun-26 @ 15:00 UTC

PROB40 TEMPO 2608/2615 2100 -TSRA

Temporary - 40% Likelihood

Temporary - 40% Likelihood during this time.

Conditions
Light Thunderstorm, Light Rain

Jun-26@
21:00 UTC

Jun-26 @ 21:00 UTC

Jun-27@
06:00 UTC

Jun-27 @ 06:00 UTC

BECMG 2621/2622 07003MPS

Becoming

Becoming Conditions expected by Wed, Jun 26, 2019 @ 22:00 UTC

Wind
  • 070° at 6 KTS
Cloud Levels
  • Broken at 1,000' AGL
  • Scattered at 2,000' AGL